sensor_id;sensor_type;location;lat;lon;timestamp;temperature;humidity
6518;DHT22;3292;48.944;9.240;2023-12-29T00:02:25;9.10;99.90
6518;DHT22;3292;48.944;9.240;2023-12-29T00:04:52;9.10;99.90
6518;DHT22;3292;48.944;9.240;2023-12-29T00:07:19;9.10;99.90
6518;DHT22;3292;48.944;9.240;2023-12-29T00:09:46;9.00;99.90
6518;DHT22;3292;48.944;9.240;2023-12-29T00:12:14;9.00;99.90
6518;DHT22;3292;48.944;9.240;2023-12-29T00:14:41;9.00;99.90
6518;DHT22;3292;48.944;9.240;2023-12-29T00:17:09;9.10;99.90
6518;DHT22;3292;48.944;9.240;2023-12-29T00:19:36;9.10;99.90
6518;DHT22;3292;48.944;9.240;2023-12-29T00:22:03;9.10;99.90
6518;DHT22;3292;48.944;9.240;2023-12-29T00:24:30;9.20;99.90
6518;DHT22;3292;48.944;9.240;2023-12-29T00:26:57;9.20;99.90
6518;DHT22;3292;48.944;9.240;2023-12-29T00:29:26;9.20;99.90
6518;DHT22;3292;48.944;9.240;2023-12-29T00:31:58;9.20;99.90
6518;DHT22;3292;48.944;9.240;2023-12-29T00:34:25;9.20;99.90
6518;DHT22;3292;48.944;9.240;2023-12-29T00:36:52;9.20;99.90
6518;DHT22;3292;48.944;9.240;2023-12-29T00:39:19;9.20;99.90
6518;DHT22;3292;48.944;9.240;2023-12-29T00:41:54;9.30;99.90
6518;DHT22;3292;48.944;9.240;2023-12-29T00:44:20;9.30;99.90
6518;DHT22;3292;48.944;9.240;2023-12-29T00:46:49;9.30;99.90
6518;DHT22;3292;48.944;9.240;2023-12-29T00:49:15;9.40;99.90
6518;DHT22;3292;48.944;9.240;2023-12-29T00:51:43;9.30;99.90
6518;DHT22;3292;48.944;9.240;2023-12-29T00:54:10;9.40;99.90
6518;DHT22;3292;48.944;9.240;2023-12-29T00:56:37;9.40;99.90
6518;DHT22;3292;48.944;9.240;2023-12-29T00:59:04;9.40;99.90
6518;DHT22;3292;48.944;9.240;2023-12-29T01:01:33;9.40;99.90
6518;DHT22;3292;48.944;9.240;2023-12-29T01:04:01;9.30;99.90
6518;DHT22;3292;48.944;9.240;2023-12-29T01:06:29;9.30;99.90
6518;DHT22;3292;48.944;9.240;2023-12-29T01:08:55;9.20;99.90
6518;DHT22;3292;48.944;9.240;2023-12-29T01:11:22;9.20;99.90
6518;DHT22;3292;48.944;9.240;2023-12-29T01:13:49;9.10;99.90
6518;DHT22;3292;48.944;9.240;2023-12-29T01:16:16;9.10;99.90
6518;DHT22;3292;48.944;9.240;2023-12-29T01:18:43;9.00;99.90
6518;DHT22;3292;48.944;9.240;2023-12-29T01:21:11;9.00;99.90
6518;DHT22;3292;48.944;9.240;2023-12-29T01:23:38;9.00;99.90
6518;DHT22;3292;48.944;9.240;2023-12-29T01:26:04;8.90;99.90
6518;DHT22;3292;48.944;9.240;2023-12-29T01:28:31;8.90;99.90
6518;DHT22;3292;48.944;9.240;2023-12-29T01:30:58;8.90;99.90
6518;DHT22;3292;48.944;9.240;2023-12-29T01:33:25;8.90;99.90
6518;DHT22;3292;48.944;9.240;2023-12-29T01:35:52;8.90;99.90
6518;DHT22;3292;48.944;9.240;2023-12-29T01:38:20;9.00;99.90
6518;DHT22;3292;48.944;9.240;2023-12-29T01:40:47;9.00;99.90
6518;DHT22;3292;48.944;9.240;2023-12-29T01:43:14;9.10;99.90
6518;DHT22;3292;48.944;9.240;2023-12-29T01:45:41;9.10;99.90
6518;DHT22;3292;48.944;9.240;2023-12-29T01:48:08;9.10;99.90
6518;DHT22;3292;48.944;9.240;2023-12-29T01:50:35;9.20;99.90
6518;DHT22;3292;48.944;9.240;2023-12-29T01:53:03;9.20;99.90
6518;DHT22;3292;48.944;9.240;2023-12-29T01:55:33;9.20;99.90
6518;DHT22;3292;48.944;9.240;2023-12-29T01:58:01;9.20;99.90
6518;DHT22;3292;48.944;9.240;2023-12-29T02:00:28;9.30;99.90
6518;DHT22;3292;48.944;9.240;2023-12-29T02:02:57;9.30;99.90
6518;DHT22;3292;48.944;9.240;2023-12-29T02:05:25;9.30;99.90
6518;DHT22;3292;48.944;9.240;2023-12-29T02:07:53;9.40;99.90
6518;DHT22;3292;48.944;9.240;2023-12-29T02:10:20;9.40;99.90
6518;DHT22;3292;48.944;9.240;2023-12-29T02:12:48;9.40;99.90
6518;DHT22;3292;48.944;9.240;2023-12-29T02:15:15;9.40;99.90
6518;DHT22;3292;48.944;9.240;2023-12-29T02:17:46;9.40;99.90
6518;DHT22;3292;48.944;9.240;2023-12-29T02:20:14;9.50;99.90
6518;DHT22;3292;48.944;9.240;2023-12-29T02:22:41;9.50;99.90
6518;DHT22;3292;48.944;9.240;2023-12-29T02:25:09;9.50;99.90
6518;DHT22;3292;48.944;9.240;2023-12-29T02:27:43;9.60;99.90
6518;DHT22;3292;48.944;9.240;2023-12-29T02:30:15;9.60;99.90
6518;DHT22;3292;48.944;9.240;2023-12-29T02:32:46;9.60;99.90
6518;DHT22;3292;48.944;9.240;2023-12-29T02:35:17;9.70;99.90
6518;DHT22;3292;48.944;9.240;2023-12-29T02:37:45;9.70;99.90
6518;DHT22;3292;48.944;9.240;2023-12-29T02:40:14;9.70;99.90
6518;DHT22;3292;48.944;9.240;2023-12-29T02:42:45;9.80;99.90
6518;DHT22;3292;48.944;9.240;2023-12-29T02:45:12;9.70;99.90
6518;DHT22;3292;48.944;9.240;2023-12-29T02:47:39;9.70;99.90
6518;DHT22;3292;48.944;9.240;2023-12-29T02:50:06;9.70;99.90
6518;DHT22;3292;48.944;9.240;2023-12-29T02:52:33;9.80;99.90
6518;DHT22;3292;48.944;9.240;2023-12-29T02:55:00;9.80;99.90
6518;DHT22;3292;48.944;9.240;2023-12-29T02:57:28;9.80;99.90
6518;DHT22;3292;48.944;9.240;2023-12-29T02:59:55;9.80;99.90
6518;DHT22;3292;48.944;9.240;2023-12-29T03:02:22;9.80;99.90
6518;DHT22;3292;48.944;9.240;2023-12-29T03:04:49;9.80;99.90
6518;DHT22;3292;48.944;9.240;2023-12-29T03:07:16;9.80;99.90
6518;DHT22;3292;48.944;9.240;2023-12-29T03:09:43;9.80;99.90
6518;DHT22;3292;48.944;9.240;2023-12-29T03:12:09;9.80;99.90
6518;DHT22;3292;48.944;9.240;2023-12-29T03:14:38;9.80;99.90
6518;DHT22;3292;48.944;9.240;2023-12-29T03:17:04;9.80;99.90
6518;DHT22;3292;48.944;9.240;2023-12-29T03:19:31;9.80;99.90
6518;DHT22;3292;48.944;9.240;2023-12-29T03:21:58;9.80;99.90
6518;DHT22;3292;48.944;9.240;2023-12-29T03:24:25;9.80;99.90
6518;DHT22;3292;48.944;9.240;2023-12-29T03:26:52;9.80;99.90
6518;DHT22;3292;48.944;9.240;2023-12-29T03:29:19;9.70;99.90
6518;DHT22;3292;48.944;9.240;2023-12-29T03:31:48;9.70;99.90
6518;DHT22;3292;48.944;9.240;2023-12-29T03:34:14;9.80;99.90
6518;DHT22;3292;48.944;9.240;2023-12-29T03:36:41;9.80;99.90
6518;DHT22;3292;48.944;9.240;2023-12-29T03:39:08;9.70;99.90
6518;DHT22;3292;48.944;9.240;2023-12-29T03:41:35;9.70;99.90
6518;DHT22;3292;48.944;9.240;2023-12-29T03:44:02;9.70;99.90
6518;DHT22;3292;48.944;9.240;2023-12-29T03:46:28;9.70;99.90
6518;DHT22;3292;48.944;9.240;2023-12-29T03:48:57;9.70;99.90
6518;DHT22;3292;48.944;9.240;2023-12-29T03:51:24;9.70;99.90
6518;DHT22;3292;48.944;9.240;2023-12-29T03:53:50;9.70;99.90
6518;DHT22;3292;48.944;9.240;2023-12-29T03:56:18;9.70;99.90
6518;DHT22;3292;48.944;9.240;2023-12-29T03:58:46;9.70;99.90
6518;DHT22;3292;48.944;9.240;2023-12-29T04:01:13;9.70;99.90
6518;DHT22;3292;48.944;9.240;2023-12-29T04:03:40;9.70;99.90
6518;DHT22;3292;48.944;9.240;2023-12-29T04:06:09;9.60;99.90
6518;DHT22;3292;48.944;9.240;2023-12-29T04:08:37;9.60;99.90
6518;DHT22;3292;48.944;9.240;2023-12-29T04:11:04;9.60;99.90
6518;DHT22;3292;48.944;9.240;2023-12-29T04:13:31;9.50;99.90
6518;DHT22;3292;48.944;9.240;2023-12-29T04:15:58;9.50;99.90
6518;DHT22;3292;48.944;9.240;2023-12-29T04:18:25;9.40;99.90
6518;DHT22;3292;48.944;9.240;2023-12-29T04:20:52;9.40;99.90
6518;DHT22;3292;48.944;9.240;2023-12-29T04:23:20;9.30;99.90
6518;DHT22;3292;48.944;9.240;2023-12-29T04:25:47;9.30;99.90
6518;DHT22;3292;48.944;9.240;2023-12-29T04:28:13;9.20;99.90
6518;DHT22;3292;48.944;9.240;2023-12-29T04:30:40;9.20;99.90
6518;DHT22;3292;48.944;9.240;2023-12-29T04:33:07;9.20;99.90
6518;DHT22;3292;48.944;9.240;2023-12-29T04:35:34;9.20;99.90
6518;DHT22;3292;48.944;9.240;2023-12-29T04:38:00;9.20;99.90
6518;DHT22;3292;48.944;9.240;2023-12-29T04:40:28;9.20;99.90
6518;DHT22;3292;48.944;9.240;2023-12-29T04:42:55;9.20;99.90
6518;DHT22;3292;48.944;9.240;2023-12-29T04:45:22;9.10;99.90
6518;DHT22;3292;48.944;9.240;2023-12-29T04:47:49;9.20;99.90
6518;DHT22;3292;48.944;9.240;2023-12-29T04:50:18;9.10;99.90
6518;DHT22;3292;48.944;9.240;2023-12-29T04:52:45;9.10;99.90
6518;DHT22;3292;48.944;9.240;2023-12-29T04:55:12;9.10;99.90
6518;DHT22;3292;48.944;9.240;2023-12-29T04:57:40;9.10;99.90
6518;DHT22;3292;48.944;9.240;2023-12-29T05:00:11;9.10;99.90
6518;DHT22;3292;48.944;9.240;2023-12-29T05:02:38;9.10;99.90
6518;DHT22;3292;48.944;9.240;2023-12-29T05:05:06;9.10;99.90
6518;DHT22;3292;48.944;9.240;2023-12-29T05:07:32;9.10;99.90
6518;DHT22;3292;48.944;9.240;2023-12-29T05:09:59;9.00;99.90
6518;DHT22;3292;48.944;9.240;2023-12-29T05:12:26;9.10;99.90
6518;DHT22;3292;48.944;9.240;2023-12-29T05:14:54;9.00;99.90
6518;DHT22;3292;48.944;9.240;2023-12-29T05:17:21;9.00;99.90
6518;DHT22;3292;48.944;9.240;2023-12-29T05:19:48;9.00;99.90
6518;DHT22;3292;48.944;9.240;2023-12-29T05:22:15;9.00;99.90
6518;DHT22;3292;48.944;9.240;2023-12-29T05:24:43;9.00;99.90
6518;DHT22;3292;48.944;9.240;2023-12-29T05:27:10;9.00;99.90
6518;DHT22;3292;48.944;9.240;2023-12-29T05:29:37;8.90;99.90
6518;DHT22;3292;48.944;9.240;2023-12-29T05:32:06;8.90;99.90
6518;DHT22;3292;48.944;9.240;2023-12-29T05:34:34;8.90;99.90
6518;DHT22;3292;48.944;9.240;2023-12-29T05:37:00;8.80;99.90
6518;DHT22;3292;48.944;9.240;2023-12-29T05:39:27;8.80;99.90
6518;DHT22;3292;48.944;9.240;2023-12-29T05:41:55;8.80;99.90
6518;DHT22;3292;48.944;9.240;2023-12-29T05:44:22;8.80;99.90
6518;DHT22;3292;48.944;9.240;2023-12-29T05:46:49;8.80;99.90
6518;DHT22;3292;48.944;9.240;2023-12-29T05:49:18;8.80;99.90
6518;DHT22;3292;48.944;9.240;2023-12-29T05:51:45;8.80;99.90
6518;DHT22;3292;48.944;9.240;2023-12-29T05:54:12;8.80;99.90
6518;DHT22;3292;48.944;9.240;2023-12-29T05:56:38;8.80;99.90
6518;DHT22;3292;48.944;9.240;2023-12-29T05:59:05;8.70;99.90
6518;DHT22;3292;48.944;9.240;2023-12-29T06:01:32;8.70;99.90
6518;DHT22;3292;48.944;9.240;2023-12-29T06:03:59;8.70;99.90
6518;DHT22;3292;48.944;9.240;2023-12-29T06:06:28;8.70;99.90
6518;DHT22;3292;48.944;9.240;2023-12-29T06:08:55;8.70;99.90
6518;DHT22;3292;48.944;9.240;2023-12-29T06:11:22;8.70;99.90
6518;DHT22;3292;48.944;9.240;2023-12-29T06:13:49;8.70;99.90
6518;DHT22;3292;48.944;9.240;2023-12-29T06:16:19;8.70;99.90
6518;DHT22;3292;48.944;9.240;2023-12-29T06:18:46;8.60;99.90
6518;DHT22;3292;48.944;9.240;2023-12-29T06:21:13;8.60;99.90
6518;DHT22;3292;48.944;9.240;2023-12-29T06:23:41;8.50;99.90
6518;DHT22;3292;48.944;9.240;2023-12-29T06:26:22;8.50;99.90
6518;DHT22;3292;48.944;9.240;2023-12-29T06:28:49;8.50;99.90
6518;DHT22;3292;48.944;9.240;2023-12-29T06:31:17;8.50;99.90
6518;DHT22;3292;48.944;9.240;2023-12-29T06:33:44;8.60;99.90
6518;DHT22;3292;48.944;9.240;2023-12-29T06:36:12;8.50;99.90
6518;DHT22;3292;48.944;9.240;2023-12-29T06:38:40;8.50;99.90
6518;DHT22;3292;48.944;9.240;2023-12-29T06:41:07;8.40;99.90
6518;DHT22;3292;48.944;9.240;2023-12-29T06:43:35;8.40;99.90
6518;DHT22;3292;48.944;9.240;2023-12-29T06:46:02;8.40;99.90
6518;DHT22;3292;48.944;9.240;2023-12-29T06:48:29;8.40;99.90
6518;DHT22;3292;48.944;9.240;2023-12-29T06:50:57;8.40;99.90
6518;DHT22;3292;48.944;9.240;2023-12-29T06:53:24;8.40;99.90
6518;DHT22;3292;48.944;9.240;2023-12-29T06:55:52;8.30;99.90
6518;DHT22;3292;48.944;9.240;2023-12-29T06:58:19;8.30;99.90
6518;DHT22;3292;48.944;9.240;2023-12-29T07:00:46;8.30;99.90
6518;DHT22;3292;48.944;9.240;2023-12-29T07:03:13;8.30;99.90
6518;DHT22;3292;48.944;9.240;2023-12-29T07:05:40;8.30;99.90
6518;DHT22;3292;48.944;9.240;2023-12-29T07:08:07;8.30;99.90
6518;DHT22;3292;48.944;9.240;2023-12-29T07:10:34;8.40;99.90
6518;DHT22;3292;48.944;9.240;2023-12-29T07:13:03;8.40;99.90
6518;DHT22;3292;48.944;9.240;2023-12-29T07:15:29;8.40;99.90
6518;DHT22;3292;48.944;9.240;2023-12-29T07:17:56;8.50;99.90
6518;DHT22;3292;48.944;9.240;2023-12-29T07:20:23;8.50;99.90
6518;DHT22;3292;48.944;9.240;2023-12-29T07:22:50;8.50;99.90
6518;DHT22;3292;48.944;9.240;2023-12-29T07:25:17;8.50;99.90
6518;DHT22;3292;48.944;9.240;2023-12-29T07:27:44;8.60;99.90
6518;DHT22;3292;48.944;9.240;2023-12-29T07:30:13;8.50;99.90
6518;DHT22;3292;48.944;9.240;2023-12-29T07:32:40;8.60;99.90
6518;DHT22;3292;48.944;9.240;2023-12-29T07:35:08;8.60;99.90
6518;DHT22;3292;48.944;9.240;2023-12-29T07:37:34;8.60;99.90
6518;DHT22;3292;48.944;9.240;2023-12-29T07:40:01;8.50;99.90
6518;DHT22;3292;48.944;9.240;2023-12-29T07:42:29;8.50;99.90
6518;DHT22;3292;48.944;9.240;2023-12-29T07:44:57;8.50;99.90
6518;DHT22;3292;48.944;9.240;2023-12-29T07:47:26;8.50;99.90
6518;DHT22;3292;48.944;9.240;2023-12-29T07:49:53;8.60;99.90
6518;DHT22;3292;48.944;9.240;2023-12-29T07:52:19;8.60;99.90
6518;DHT22;3292;48.944;9.240;2023-12-29T07:54:49;8.60;99.90
6518;DHT22;3292;48.944;9.240;2023-12-29T07:57:16;8.60;99.90
6518;DHT22;3292;48.944;9.240;2023-12-29T07:59:43;8.70;99.90
6518;DHT22;3292;48.944;9.240;2023-12-29T08:02:10;8.70;99.90
6518;DHT22;3292;48.944;9.240;2023-12-29T08:04:38;8.80;99.90
6518;DHT22;3292;48.944;9.240;2023-12-29T08:07:05;8.80;99.90
6518;DHT22;3292;48.944;9.240;2023-12-29T08:09:31;8.80;99.90
6518;DHT22;3292;48.944;9.240;2023-12-29T08:11:58;8.90;99.90
6518;DHT22;3292;48.944;9.240;2023-12-29T08:14:28;9.00;99.90
6518;DHT22;3292;48.944;9.240;2023-12-29T08:16:55;9.10;99.90
6518;DHT22;3292;48.944;9.240;2023-12-29T08:19:22;9.10;99.90
6518;DHT22;3292;48.944;9.240;2023-12-29T08:21:50;9.10;99.90
6518;DHT22;3292;48.944;9.240;2023-12-29T08:24:17;9.20;99.90
6518;DHT22;3292;48.944;9.240;2023-12-29T08:26:45;9.20;99.90
6518;DHT22;3292;48.944;9.240;2023-12-29T08:29:12;9.30;99.90
6518;DHT22;3292;48.944;9.240;2023-12-29T08:31:39;9.30;99.90
6518;DHT22;3292;48.944;9.240;2023-12-29T08:34:06;9.30;99.90
6518;DHT22;3292;48.944;9.240;2023-12-29T08:36:33;9.50;99.90
6518;DHT22;3292;48.944;9.240;2023-12-29T08:39:02;9.50;99.90
6518;DHT22;3292;48.944;9.240;2023-12-29T08:41:29;9.50;99.90
6518;DHT22;3292;48.944;9.240;2023-12-29T08:43:56;9.60;99.90
6518;DHT22;3292;48.944;9.240;2023-12-29T08:46:23;9.60;99.90
6518;DHT22;3292;48.944;9.240;2023-12-29T08:48:50;9.60;99.90
6518;DHT22;3292;48.944;9.240;2023-12-29T08:51:17;9.70;99.90
6518;DHT22;3292;48.944;9.240;2023-12-29T08:53:44;9.70;99.90
6518;DHT22;3292;48.944;9.240;2023-12-29T08:56:12;9.70;99.90
6518;DHT22;3292;48.944;9.240;2023-12-29T08:58:40;9.70;99.90
6518;DHT22;3292;48.944;9.240;2023-12-29T09:01:07;9.80;99.90
6518;DHT22;3292;48.944;9.240;2023-12-29T09:03:33;9.80;99.90
6518;DHT22;3292;48.944;9.240;2023-12-29T09:06:00;9.80;99.90
6518;DHT22;3292;48.944;9.240;2023-12-29T09:08:28;9.90;99.90
6518;DHT22;3292;48.944;9.240;2023-12-29T09:10:55;9.90;99.90
6518;DHT22;3292;48.944;9.240;2023-12-29T09:13:23;9.90;99.90
6518;DHT22;3292;48.944;9.240;2023-12-29T09:15:52;9.90;99.90
6518;DHT22;3292;48.944;9.240;2023-12-29T09:18:22;10.00;99.90
6518;DHT22;3292;48.944;9.240;2023-12-29T09:20:49;10.00;99.90
6518;DHT22;3292;48.944;9.240;2023-12-29T09:23:16;10.00;99.90
6518;DHT22;3292;48.944;9.240;2023-12-29T09:25:42;10.10;99.90
6518;DHT22;3292;48.944;9.240;2023-12-29T09:28:09;10.00;99.90
6518;DHT22;3292;48.944;9.240;2023-12-29T09:30:37;10.10;99.90
6518;DHT22;3292;48.944;9.240;2023-12-29T09:33:04;10.10;99.90
6518;DHT22;3292;48.944;9.240;2023-12-29T09:35:31;10.10;99.90
6518;DHT22;3292;48.944;9.240;2023-12-29T09:37:58;10.10;99.90
6518;DHT22;3292;48.944;9.240;2023-12-29T09:40:25;10.10;99.90
6518;DHT22;3292;48.944;9.240;2023-12-29T09:42:52;10.10;99.90
6518;DHT22;3292;48.944;9.240;2023-12-29T09:45:24;10.10;99.90
6518;DHT22;3292;48.944;9.240;2023-12-29T09:47:52;10.20;99.90
6518;DHT22;3292;48.944;9.240;2023-12-29T09:50:21;10.20;99.90
6518;DHT22;3292;48.944;9.240;2023-12-29T09:52:48;10.30;99.90
6518;DHT22;3292;48.944;9.240;2023-12-29T09:55:15;10.20;99.90
6518;DHT22;3292;48.944;9.240;2023-12-29T09:57:43;10.30;99.90
6518;DHT22;3292;48.944;9.240;2023-12-29T10:00:11;10.30;99.90
6518;DHT22;3292;48.944;9.240;2023-12-29T10:02:38;10.30;99.90
6518;DHT22;3292;48.944;9.240;2023-12-29T10:05:08;10.30;99.90
6518;DHT22;3292;48.944;9.240;2023-12-29T10:07:37;10.30;99.90
6518;DHT22;3292;48.944;9.240;2023-12-29T10:10:05;10.30;99.90
6518;DHT22;3292;48.944;9.240;2023-12-29T10:12:33;10.30;99.90
6518;DHT22;3292;48.944;9.240;2023-12-29T10:15:06;10.30;99.90
6518;DHT22;3292;48.944;9.240;2023-12-29T10:17:46;10.30;99.90
6518;DHT22;3292;48.944;9.240;2023-12-29T10:20:25;10.30;99.90
6518;DHT22;3292;48.944;9.240;2023-12-29T10:23:03;10.30;99.90
6518;DHT22;3292;48.944;9.240;2023-12-29T10:25:31;10.30;99.90
6518;DHT22;3292;48.944;9.240;2023-12-29T10:27:58;10.30;99.90
6518;DHT22;3292;48.944;9.240;2023-12-29T10:30:26;10.40;99.90
6518;DHT22;3292;48.944;9.240;2023-12-29T10:32:53;10.40;99.90
6518;DHT22;3292;48.944;9.240;2023-12-29T10:35:22;10.40;99.90
6518;DHT22;3292;48.944;9.240;2023-12-29T10:37:48;10.50;99.90
6518;DHT22;3292;48.944;9.240;2023-12-29T10:40:19;10.50;99.90
6518;DHT22;3292;48.944;9.240;2023-12-29T10:42:52;10.50;99.90
6518;DHT22;3292;48.944;9.240;2023-12-29T10:45:20;10.60;99.90
6518;DHT22;3292;48.944;9.240;2023-12-29T10:47:47;10.60;99.90
6518;DHT22;3292;48.944;9.240;2023-12-29T10:50:14;10.60;99.90
6518;DHT22;3292;48.944;9.240;2023-12-29T10:52:42;10.70;99.90
6518;DHT22;3292;48.944;9.240;2023-12-29T10:55:10;10.70;99.90
6518;DHT22;3292;48.944;9.240;2023-12-29T10:57:38;10.80;99.90
6518;DHT22;3292;48.944;9.240;2023-12-29T11:00:06;10.90;99.90
6518;DHT22;3292;48.944;9.240;2023-12-29T11:02:34;11.00;99.90
6518;DHT22;3292;48.944;9.240;2023-12-29T11:05:05;11.00;99.90
6518;DHT22;3292;48.944;9.240;2023-12-29T11:07:34;11.10;99.90
6518;DHT22;3292;48.944;9.240;2023-12-29T11:10:04;11.10;99.90
6518;DHT22;3292;48.944;9.240;2023-12-29T11:12:33;11.20;99.90
6518;DHT22;3292;48.944;9.240;2023-12-29T11:15:02;11.30;99.90
6518;DHT22;3292;48.944;9.240;2023-12-29T11:17:30;11.30;99.90
6518;DHT22;3292;48.944;9.240;2023-12-29T11:19:58;11.40;99.90
6518;DHT22;3292;48.944;9.240;2023-12-29T11:22:28;11.40;99.90
6518;DHT22;3292;48.944;9.240;2023-12-29T11:24:55;11.40;99.90
6518;DHT22;3292;48.944;9.240;2023-12-29T11:27:27;11.50;99.90
6518;DHT22;3292;48.944;9.240;2023-12-29T11:29:55;11.50;99.90
6518;DHT22;3292;48.944;9.240;2023-12-29T11:32:27;11.60;99.90
6518;DHT22;3292;48.944;9.240;2023-12-29T11:35:02;11.70;99.90
6518;DHT22;3292;48.944;9.240;2023-12-29T11:37:36;11.80;99.90
6518;DHT22;3292;48.944;9.240;2023-12-29T11:40:16;11.90;99.90
6518;DHT22;3292;48.944;9.240;2023-12-29T11:42:49;11.90;99.90
6518;DHT22;3292;48.944;9.240;2023-12-29T11:45:27;12.00;99.90
6518;DHT22;3292;48.944;9.240;2023-12-29T11:47:54;12.00;99.90
6518;DHT22;3292;48.944;9.240;2023-12-29T11:50:32;12.00;99.90
6518;DHT22;3292;48.944;9.240;2023-12-29T11:52:59;12.10;99.90
6518;DHT22;3292;48.944;9.240;2023-12-29T11:55:33;12.10;99.90
6518;DHT22;3292;48.944;9.240;2023-12-29T11:58:02;12.00;99.90
6518;DHT22;3292;48.944;9.240;2023-12-29T12:00:41;12.00;99.90
6518;DHT22;3292;48.944;9.240;2023-12-29T12:03:24;12.00;99.90
6518;DHT22;3292;48.944;9.240;2023-12-29T12:05:52;12.00;99.90
6518;DHT22;3292;48.944;9.240;2023-12-29T12:08:30;12.10;99.90
6518;DHT22;3292;48.944;9.240;2023-12-29T12:11:41;12.00;99.90
6518;DHT22;3292;48.944;9.240;2023-12-29T12:13:46;12.10;99.90
6518;DHT22;3292;48.944;9.240;2023-12-29T12:16:46;12.10;99.90
6518;DHT22;3292;48.944;9.240;2023-12-29T12:19:15;12.10;99.90
6518;DHT22;3292;48.944;9.240;2023-12-29T12:21:45;12.10;99.90
6518;DHT22;3292;48.944;9.240;2023-12-29T12:24:13;12.10;99.90
6518;DHT22;3292;48.944;9.240;2023-12-29T12:26:41;12.10;99.90
6518;DHT22;3292;48.944;9.240;2023-12-29T12:29:09;12.10;99.90
6518;DHT22;3292;48.944;9.240;2023-12-29T12:31:36;12.10;99.90
6518;DHT22;3292;48.944;9.240;2023-12-29T12:34:03;12.10;99.90
6518;DHT22;3292;48.944;9.240;2023-12-29T12:36:31;12.00;99.90
6518;DHT22;3292;48.944;9.240;2023-12-29T12:38:58;12.00;99.90
6518;DHT22;3292;48.944;9.240;2023-12-29T12:41:26;12.00;99.90
6518;DHT22;3292;48.944;9.240;2023-12-29T12:43:59;12.00;99.90
6518;DHT22;3292;48.944;9.240;2023-12-29T12:46:33;11.90;99.90
6518;DHT22;3292;48.944;9.240;2023-12-29T12:49:01;11.90;99.90
6518;DHT22;3292;48.944;9.240;2023-12-29T12:51:29;11.90;99.90
6518;DHT22;3292;48.944;9.240;2023-12-29T12:53:57;11.90;99.90
6518;DHT22;3292;48.944;9.240;2023-12-29T12:56:24;11.90;99.90
6518;DHT22;3292;48.944;9.240;2023-12-29T12:58:54;11.90;99.90
6518;DHT22;3292;48.944;9.240;2023-12-29T13:01:21;11.90;99.90
6518;DHT22;3292;48.944;9.240;2023-12-29T13:03:50;11.80;99.90
6518;DHT22;3292;48.944;9.240;2023-12-29T13:06:17;11.80;99.90
6518;DHT22;3292;48.944;9.240;2023-12-29T13:08:48;11.80;99.90
6518;DHT22;3292;48.944;9.240;2023-12-29T13:11:18;11.80;99.90
6518;DHT22;3292;48.944;9.240;2023-12-29T13:13:47;11.70;99.90
6518;DHT22;3292;48.944;9.240;2023-12-29T13:16:14;11.80;99.90
6518;DHT22;3292;48.944;9.240;2023-12-29T13:18:41;11.80;99.90
6518;DHT22;3292;48.944;9.240;2023-12-29T13:21:17;11.80;99.90
6518;DHT22;3292;48.944;9.240;2023-12-29T13:23:44;11.80;99.90
6518;DHT22;3292;48.944;9.240;2023-12-29T13:26:11;11.80;99.90
6518;DHT22;3292;48.944;9.240;2023-12-29T13:28:39;11.80;99.90
6518;DHT22;3292;48.944;9.240;2023-12-29T13:31:07;11.70;99.90
6518;DHT22;3292;48.944;9.240;2023-12-29T13:33:45;11.70;99.90
6518;DHT22;3292;48.944;9.240;2023-12-29T13:36:21;11.70;99.90
6518;DHT22;3292;48.944;9.240;2023-12-29T13:38:53;11.70;99.90
6518;DHT22;3292;48.944;9.240;2023-12-29T13:41:23;11.70;99.90
6518;DHT22;3292;48.944;9.240;2023-12-29T13:43:52;11.70;99.90
6518;DHT22;3292;48.944;9.240;2023-12-29T13:46:19;11.70;99.90
6518;DHT22;3292;48.944;9.240;2023-12-29T13:48:47;11.70;99.90
6518;DHT22;3292;48.944;9.240;2023-12-29T13:51:24;11.70;99.90
6518;DHT22;3292;48.944;9.240;2023-12-29T13:53:58;11.70;99.90
6518;DHT22;3292;48.944;9.240;2023-12-29T13:56:25;11.70;99.90
6518;DHT22;3292;48.944;9.240;2023-12-29T13:58:52;11.60;99.90
6518;DHT22;3292;48.944;9.240;2023-12-29T14:01:19;11.60;99.90
6518;DHT22;3292;48.944;9.240;2023-12-29T14:03:50;11.60;99.90
6518;DHT22;3292;48.944;9.240;2023-12-29T14:06:21;11.50;99.90
6518;DHT22;3292;48.944;9.240;2023-12-29T14:08:49;11.50;99.90
6518;DHT22;3292;48.944;9.240;2023-12-29T14:11:16;11.50;99.90
6518;DHT22;3292;48.944;9.240;2023-12-29T14:13:43;11.50;99.90
6518;DHT22;3292;48.944;9.240;2023-12-29T14:16:10;11.40;99.90
6518;DHT22;3292;48.944;9.240;2023-12-29T14:18:53;11.40;99.90
6518;DHT22;3292;48.944;9.240;2023-12-29T14:21:24;11.40;99.90
6518;DHT22;3292;48.944;9.240;2023-12-29T14:24:08;11.30;99.90
6518;DHT22;3292;48.944;9.240;2023-12-29T14:26:35;11.30;99.90
6518;DHT22;3292;48.944;9.240;2023-12-29T14:29:03;11.40;99.90
6518;DHT22;3292;48.944;9.240;2023-12-29T14:31:35;11.40;99.90
6518;DHT22;3292;48.944;9.240;2023-12-29T14:34:03;11.40;99.90
6518;DHT22;3292;48.944;9.240;2023-12-29T14:36:30;11.40;99.90
6518;DHT22;3292;48.944;9.240;2023-12-29T14:38:57;11.30;99.90
6518;DHT22;3292;48.944;9.240;2023-12-29T14:41:26;11.30;99.90
6518;DHT22;3292;48.944;9.240;2023-12-29T14:43:53;11.30;99.90
6518;DHT22;3292;48.944;9.240;2023-12-29T14:46:20;11.30;99.90
6518;DHT22;3292;48.944;9.240;2023-12-29T14:48:47;11.20;99.90
6518;DHT22;3292;48.944;9.240;2023-12-29T14:51:14;11.20;99.90
6518;DHT22;3292;48.944;9.240;2023-12-29T14:53:43;11.20;99.90
6518;DHT22;3292;48.944;9.240;2023-12-29T14:56:11;11.20;99.90
6518;DHT22;3292;48.944;9.240;2023-12-29T14:58:39;11.10;99.90
6518;DHT22;3292;48.944;9.240;2023-12-29T15:01:06;11.10;99.90
6518;DHT22;3292;48.944;9.240;2023-12-29T15:03:33;11.10;99.90
6518;DHT22;3292;48.944;9.240;2023-12-29T15:06:00;11.20;99.90
6518;DHT22;3292;48.944;9.240;2023-12-29T15:08:28;11.20;99.90
6518;DHT22;3292;48.944;9.240;2023-12-29T15:11:00;11.20;99.90
6518;DHT22;3292;48.944;9.240;2023-12-29T15:13:27;11.10;99.90
6518;DHT22;3292;48.944;9.240;2023-12-29T15:15:57;11.10;99.90
6518;DHT22;3292;48.944;9.240;2023-12-29T15:18:25;11.10;99.90
6518;DHT22;3292;48.944;9.240;2023-12-29T15:20:51;11.10;99.90
6518;DHT22;3292;48.944;9.240;2023-12-29T15:23:18;11.10;99.90
6518;DHT22;3292;48.944;9.240;2023-12-29T15:25:45;11.10;99.90
6518;DHT22;3292;48.944;9.240;2023-12-29T15:28:12;11.10;99.90
6518;DHT22;3292;48.944;9.240;2023-12-29T15:30:39;11.00;99.90
6518;DHT22;3292;48.944;9.240;2023-12-29T15:33:07;11.00;99.90
6518;DHT22;3292;48.944;9.240;2023-12-29T15:35:34;11.00;99.90
6518;DHT22;3292;48.944;9.240;2023-12-29T15:38:00;10.90;99.90
6518;DHT22;3292;48.944;9.240;2023-12-29T15:40:28;10.90;99.90
6518;DHT22;3292;48.944;9.240;2023-12-29T15:42:54;10.80;99.90
6518;DHT22;3292;48.944;9.240;2023-12-29T15:45:22;10.80;99.90
6518;DHT22;3292;48.944;9.240;2023-12-29T15:47:49;10.80;99.90
6518;DHT22;3292;48.944;9.240;2023-12-29T15:50:17;10.70;99.90
6518;DHT22;3292;48.944;9.240;2023-12-29T15:52:44;10.80;99.90
6518;DHT22;3292;48.944;9.240;2023-12-29T15:55:12;10.70;99.90
6518;DHT22;3292;48.944;9.240;2023-12-29T15:57:39;10.70;99.90
6518;DHT22;3292;48.944;9.240;2023-12-29T16:00:07;10.70;99.90
6518;DHT22;3292;48.944;9.240;2023-12-29T16:02:36;10.70;99.90
6518;DHT22;3292;48.944;9.240;2023-12-29T16:05:03;10.70;99.90
6518;DHT22;3292;48.944;9.240;2023-12-29T16:07:31;10.70;99.90
6518;DHT22;3292;48.944;9.240;2023-12-29T16:09:58;10.70;99.90
6518;DHT22;3292;48.944;9.240;2023-12-29T16:12:25;10.80;99.90
6518;DHT22;3292;48.944;9.240;2023-12-29T16:14:52;10.70;99.90
6518;DHT22;3292;48.944;9.240;2023-12-29T16:17:19;10.80;99.90
6518;DHT22;3292;48.944;9.240;2023-12-29T16:19:46;10.70;99.90